createdAt,value
2018-09-18T00:01:34.939Z,16.17
2018-09-18T00:04:07.068Z,15.03
2018-09-18T00:06:37.797Z,14.87
2018-09-18T00:09:10.174Z,15.07
2018-09-18T00:11:40.179Z,14.83
2018-09-18T00:14:12.752Z,16.20
2018-09-18T00:16:42.784Z,15.70
2018-09-18T00:19:12.516Z,15.37
2018-09-18T00:21:44.627Z,14.87
2018-09-18T00:24:14.850Z,14.80
2018-09-18T00:26:45.104Z,14.67
2018-09-18T00:29:15.603Z,14.87
2018-09-18T00:31:45.280Z,15.57
2018-09-18T00:34:29.862Z,14.53
2018-09-18T00:37:00.893Z,14.87
2018-09-18T00:39:31.383Z,14.30
2018-09-18T00:42:31.806Z,14.30
2018-09-18T00:45:01.824Z,13.73
2018-09-18T00:47:34.727Z,13.97
2018-09-18T00:50:05.190Z,13.73
2018-09-18T00:52:35.454Z,13.30
2018-09-18T00:55:04.796Z,13.57
2018-09-18T00:57:33.890Z,13.07
2018-09-18T01:00:02.936Z,13.60
2018-09-18T01:02:33.309Z,13.17
2018-09-18T01:05:02.717Z,14.57
2018-09-18T01:07:32.124Z,13.73
2018-09-18T01:10:01.353Z,14.97
2018-09-18T01:12:31.787Z,14.43
2018-09-18T01:15:00.835Z,14.50
2018-09-18T01:17:29.873Z,14.20
2018-09-18T01:19:59.816Z,14.10
2018-09-18T01:22:29.529Z,14.77
2018-09-18T01:24:58.760Z,14.30
2018-09-18T01:27:28.565Z,14.40
2018-09-18T01:29:59.642Z,16.67
2018-09-18T01:32:31.665Z,16.50
2018-09-18T01:35:01.875Z,16.80
2018-09-18T01:37:32.429Z,17.30
2018-09-18T01:40:02.407Z,17.50
2018-09-18T01:42:31.842Z,17.73
2018-09-18T01:45:01.075Z,17.23
2018-09-18T01:47:31.723Z,19.17
2018-09-18T01:50:00.711Z,18.93
2018-09-18T01:52:29.682Z,18.87
2018-09-18T01:54:58.676Z,19.60
2018-09-18T01:57:27.646Z,19.60
2018-09-18T01:59:56.782Z,19.90
2018-09-18T02:02:28.159Z,20.80
2018-09-18T02:04:57.259Z,20.07
2018-09-18T02:07:26.280Z,21.40
2018-09-18T02:09:58.061Z,22.73
2018-09-18T02:12:28.646Z,22.60
2018-09-18T02:14:58.524Z,21.73
2018-09-18T02:17:29.304Z,21.40
2018-09-18T02:20:00.773Z,22.93
2018-09-18T02:22:30.017Z,22.60
2018-09-18T02:24:59.172Z,23.47
2018-09-18T02:27:30.247Z,22.63
2018-09-18T02:29:59.480Z,22.97
2018-09-18T02:32:30.774Z,23.17
2018-09-18T02:35:01.306Z,23.80
2018-09-18T02:37:30.569Z,24.10
2018-09-18T02:40:01.068Z,23.80
2018-09-18T02:42:31.028Z,22.23
2018-09-18T02:45:00.339Z,23.07
2018-09-18T02:47:29.934Z,23.40
2018-09-18T02:49:58.981Z,24.13
2018-09-18T02:52:30.190Z,22.67
2018-09-18T02:55:00.078Z,23.00
2018-09-18T02:57:28.993Z,21.30
2018-09-18T02:59:58.872Z,21.93
2018-09-18T03:02:28.174Z,23.17
2018-09-18T03:04:58.284Z,21.90
2018-09-18T03:07:28.178Z,21.73
2018-09-18T03:09:59.130Z,21.13
2018-09-18T03:12:29.066Z,21.67
2018-09-18T03:14:58.014Z,21.57
2018-09-18T03:17:27.056Z,20.90
2018-09-18T03:19:56.084Z,20.33
2018-09-18T03:22:26.534Z,20.00
2018-09-18T03:24:55.634Z,19.77
2018-09-18T03:27:25.165Z,19.60
2018-09-18T03:29:54.338Z,19.60
2018-09-18T03:32:23.737Z,18.50
2018-09-18T03:34:55.126Z,18.70
2018-09-18T03:37:23.981Z,17.63
2018-09-18T03:39:54.552Z,18.33
2018-09-18T03:42:28.657Z,17.77
2018-09-18T03:45:03.257Z,18.27
2018-09-18T03:47:33.318Z,17.37
2018-09-18T03:50:04.147Z,18.57
2018-09-18T03:55:32.866Z,17.67
2018-09-18T03:58:02.224Z,18.37
2018-09-18T04:00:32.333Z,17.07
2018-09-18T04:03:01.528Z,18.50
2018-09-18T04:05:33.144Z,16.73
2018-09-18T04:08:02.392Z,17.47
2018-09-18T04:10:36.272Z,16.93
2018-09-18T04:13:06.544Z,17.33
2018-09-18T04:15:36.952Z,17.27
2018-09-18T04:18:07.809Z,16.80
2018-09-18T04:20:37.007Z,16.77
2018-09-18T04:23:08.640Z,17.77
2018-09-18T04:25:38.107Z,17.07
2018-09-18T04:31:12.076Z,15.23
2018-09-18T04:33:42.179Z,15.33
2018-09-18T04:36:12.168Z,14.80
2018-09-18T04:38:42.935Z,15.63
2018-09-18T04:41:12.070Z,14.70
2018-09-18T04:43:42.221Z,16.17
2018-09-18T04:46:11.570Z,15.23
2018-09-18T04:48:40.275Z,15.43
2018-09-18T04:51:09.079Z,15.57
2018-09-18T04:53:37.703Z,15.60
2018-09-18T04:56:06.550Z,15.83
2018-09-18T04:58:36.534Z,16.00
2018-09-18T05:01:05.630Z,16.20
2018-09-18T05:03:34.324Z,16.13
2018-09-18T05:06:03.928Z,15.30
2018-09-18T05:08:41.851Z,16.77
2018-09-18T05:11:21.602Z,15.43
2018-09-18T05:13:53.680Z,16.30
2018-09-18T05:16:23.344Z,16.13
2018-09-18T05:18:52.347Z,14.77
2018-09-18T05:21:21.448Z,15.37
2018-09-18T05:23:51.537Z,14.80
2018-09-18T05:26:21.216Z,14.63
2018-09-18T05:28:50.144Z,15.53
2018-09-18T05:31:20.339Z,15.57
2018-09-18T05:33:51.554Z,15.10
2018-09-18T05:36:20.302Z,19.17
2018-09-18T05:38:49.124Z,13.80
2018-09-18T05:41:20.149Z,14.00
2018-09-18T05:43:49.255Z,14.20
2018-09-18T05:46:18.636Z,14.13
2018-09-18T05:48:47.342Z,13.37
2018-09-18T05:51:17.013Z,13.17
2018-09-18T05:53:45.703Z,12.90
2018-09-18T05:56:15.330Z,13.43
2018-09-18T05:58:46.687Z,13.03
2018-09-18T06:01:15.637Z,13.03
2018-09-18T06:03:44.705Z,13.47
2018-09-18T06:06:13.335Z,13.43
2018-09-18T06:08:42.126Z,13.47
2018-09-18T06:11:11.934Z,13.70
2018-09-18T06:13:40.686Z,12.67
2018-09-18T06:16:09.608Z,13.40
2018-09-18T06:18:38.487Z,13.33
2018-09-18T06:21:07.386Z,13.50
2018-09-18T06:23:36.002Z,13.03
2018-09-18T06:26:04.736Z,12.63
2018-09-18T06:28:33.386Z,12.47
2018-09-18T06:31:02.005Z,12.17
2018-09-18T06:33:30.724Z,12.93
2018-09-18T06:35:59.414Z,13.03
2018-09-18T06:38:28.082Z,12.90
2018-09-18T06:40:56.836Z,12.40
2018-09-18T06:43:25.695Z,11.73
2018-09-18T06:45:54.479Z,11.60
2018-09-18T06:48:23.147Z,11.27
2018-09-18T06:50:52.491Z,11.50
2018-09-18T06:53:21.210Z,11.67
2018-09-18T06:55:49.961Z,11.27
2018-09-18T06:58:19.762Z,10.90
2018-09-18T07:00:48.690Z,11.10
2018-09-18T07:03:17.368Z,10.40
2018-09-18T07:05:47.267Z,10.87
2018-09-18T07:08:15.967Z,10.23
2018-09-18T07:10:44.708Z,10.27
2018-09-18T07:13:13.428Z,10.17
2018-09-18T07:15:42.185Z,9.67
2018-09-18T07:18:10.921Z,10.50
2018-09-18T07:20:39.702Z,58.27
2018-09-18T07:23:08.366Z,10.50
2018-09-18T07:25:36.974Z,8.53
2018-09-18T07:28:05.832Z,9.07
2018-09-18T07:30:34.571Z,9.23
2018-09-18T07:33:03.189Z,8.53
2018-09-18T07:35:32.954Z,8.23
2018-09-18T07:38:01.641Z,8.07
2018-09-18T07:40:30.321Z,7.80
2018-09-18T07:42:59.053Z,7.77
2018-09-18T07:45:27.791Z,7.43
2018-09-18T07:47:56.463Z,7.23
2018-09-18T07:50:25.138Z,6.70
2018-09-18T07:52:56.436Z,6.97
2018-09-18T07:55:25.327Z,7.20
2018-09-18T07:57:54.019Z,7.43
2018-09-18T08:00:22.659Z,7.70
2018-09-18T08:02:51.350Z,7.33
2018-09-18T08:05:20.066Z,6.90
2018-09-18T08:07:48.756Z,7.37
2018-09-18T08:10:17.442Z,6.33
2018-09-18T08:12:46.228Z,7.77
2018-09-18T08:15:15.732Z,6.30
2018-09-18T08:17:44.509Z,6.17
2018-09-18T08:20:13.620Z,6.00
2018-09-18T08:22:42.265Z,5.40
2018-09-18T08:25:11.490Z,4.17
2018-09-18T08:27:40.136Z,4.40
2018-09-18T08:30:08.916Z,4.53
2018-09-18T08:32:37.884Z,4.07
2018-09-18T08:35:07.936Z,4.47
2018-09-18T08:37:37.160Z,4.27
2018-09-18T08:40:06.239Z,4.00
2018-09-18T08:42:37.549Z,4.27
2018-09-18T08:45:08.672Z,4.80
2018-09-18T08:47:38.248Z,4.20
2018-09-18T08:50:07.461Z,4.53
2018-09-18T08:52:40.712Z,4.60
2018-09-18T08:55:14.974Z,5.10
2018-09-18T08:57:44.087Z,4.70
2018-09-18T09:00:13.944Z,4.67
2018-09-18T09:02:44.008Z,5.53
2018-09-18T09:05:14.846Z,4.40
2018-09-18T09:07:45.183Z,4.30
2018-09-18T09:10:19.938Z,4.63
2018-09-18T09:12:51.901Z,5.70
2018-09-18T09:15:21.271Z,4.20
2018-09-18T09:17:50.042Z,4.40
2018-09-18T09:20:20.463Z,4.63
2018-09-18T09:22:51.836Z,4.77
2018-09-18T09:25:21.630Z,4.40
2018-09-18T09:27:50.672Z,3.80
2018-09-18T09:30:21.127Z,4.67
2018-09-18T09:32:52.407Z,4.00
2018-09-18T09:35:22.477Z,4.10
2018-09-18T09:37:54.217Z,4.80
2018-09-18T09:40:23.984Z,6.00
2018-09-18T09:42:53.620Z,4.33
2018-09-18T09:45:24.317Z,4.40
2018-09-18T09:47:54.471Z,8.10
2018-09-18T09:50:23.633Z,4.10
2018-09-18T09:52:53.241Z,5.60
2018-09-18T09:55:23.318Z,4.73
2018-09-18T09:57:53.223Z,4.87
2018-09-18T10:00:28.572Z,4.90
2018-09-18T10:02:58.851Z,5.17
2018-09-18T10:05:28.615Z,4.43
2018-09-18T10:07:57.704Z,4.80
2018-09-18T10:10:26.943Z,4.77
2018-09-18T10:12:55.939Z,5.30
2018-09-18T10:15:25.357Z,5.43
2018-09-18T10:17:54.680Z,4.33
2018-09-18T10:20:26.975Z,4.07
2018-09-18T10:23:00.524Z,5.33
2018-09-18T10:25:29.576Z,4.20
2018-09-18T10:27:58.395Z,4.17
2018-09-18T10:30:27.108Z,4.70
2018-09-18T10:32:57.432Z,4.20
2018-09-18T10:35:26.167Z,5.13
2018-09-18T10:37:56.429Z,3.87
2018-09-18T10:40:26.011Z,3.93
2018-09-18T10:42:55.014Z,5.03
2018-09-18T10:45:23.713Z,4.83
2018-09-18T10:47:52.528Z,5.03
2018-09-18T10:50:21.276Z,5.13
2018-09-18T10:52:49.998Z,4.97
2018-09-18T10:55:19.279Z,5.23
2018-09-18T10:57:47.984Z,4.77
2018-09-18T11:00:16.650Z,4.17
2018-09-18T11:02:45.388Z,5.70
2018-09-18T11:05:14.618Z,4.80
2018-09-18T11:07:43.479Z,5.40
2018-09-18T11:10:12.354Z,4.87
2018-09-18T11:12:41.401Z,4.90
2018-09-18T11:15:11.430Z,5.43
2018-09-18T11:17:40.378Z,4.80
2018-09-18T11:20:09.324Z,4.80
2018-09-18T11:22:38.029Z,4.83
2018-09-18T11:25:06.937Z,6.03
2018-09-18T11:27:35.772Z,5.33
2018-09-18T11:30:04.743Z,5.07
2018-09-18T11:32:33.480Z,6.10
2018-09-18T11:35:02.345Z,5.07
2018-09-18T11:37:31.004Z,5.93
2018-09-18T11:39:59.656Z,5.73
2018-09-18T11:42:28.393Z,4.63
2018-09-18T11:44:57.112Z,5.27
2018-09-18T11:47:26.894Z,6.13
2018-09-18T11:49:55.991Z,5.40
2018-09-18T11:52:26.408Z,6.03
2018-09-18T11:54:56.064Z,6.07
2018-09-18T11:57:26.224Z,5.27
2018-09-18T11:59:57.856Z,5.67
2018-09-18T12:02:30.563Z,5.43
2018-09-18T12:05:00.748Z,5.10
2018-09-18T12:07:33.684Z,5.33
2018-09-18T12:13:37.026Z,5.13
2018-09-18T12:16:10.870Z,5.00
2018-09-18T12:18:44.271Z,5.00
2018-09-18T12:21:17.007Z,6.03
2018-09-18T12:23:46.186Z,5.57
2018-09-18T12:26:15.773Z,5.30
2018-09-18T12:28:46.634Z,5.57
2018-09-18T12:31:17.658Z,4.83
2018-09-18T12:33:46.645Z,4.93
2018-09-18T12:36:15.724Z,4.57
2018-09-18T12:38:44.569Z,4.40
2018-09-18T12:41:14.724Z,5.03
2018-09-18T12:43:44.510Z,4.90
2018-09-18T12:46:13.419Z,4.50
2018-09-18T12:48:42.332Z,4.30
2018-09-18T12:51:11.306Z,4.40
2018-09-18T12:53:40.321Z,4.30
2018-09-18T12:56:11.454Z,3.70
2018-09-18T12:58:41.271Z,4.27
2018-09-18T13:01:12.846Z,4.40
2018-09-18T13:03:46.255Z,4.47
2018-09-18T13:06:18.983Z,4.80
2018-09-18T13:08:48.956Z,4.33
2018-09-18T13:11:18.271Z,4.73
2018-09-18T13:13:54.108Z,4.87
2018-09-18T13:16:28.346Z,5.73
2018-09-18T13:18:57.648Z,5.93
2018-09-18T13:21:36.833Z,5.17
2018-09-18T13:24:07.446Z,5.80
2018-09-18T13:26:41.661Z,5.57
2018-09-18T13:29:10.848Z,6.00
2018-09-18T13:31:58.374Z,6.67
2018-09-18T13:34:34.706Z,5.40
2018-09-18T13:37:16.715Z,5.10
2018-09-18T13:40:03.098Z,6.50
2018-09-18T13:42:35.883Z,6.00
2018-09-18T13:45:06.392Z,6.00
2018-09-18T13:47:39.133Z,5.50
2018-09-18T13:50:10.006Z,6.08
2018-09-18T13:52:41.662Z,6.10
2018-09-18T13:55:11.660Z,6.30
2018-09-18T13:57:43.925Z,6.20
2018-09-18T14:00:37.480Z,6.03
2018-09-18T14:03:06.785Z,6.30
2018-09-18T14:05:35.938Z,5.53
2018-09-18T14:08:06.092Z,6.30
2018-09-18T14:10:34.936Z,7.20
2018-09-18T14:13:08.486Z,6.80
2018-09-18T14:15:37.342Z,6.43
2018-09-18T14:18:06.366Z,6.07
2018-09-18T14:21:08.265Z,6.60
2018-09-18T14:23:37.766Z,6.27
2018-09-18T14:26:08.701Z,6.07
2018-09-18T14:28:41.387Z,5.87
2018-09-18T14:31:15.123Z,6.87
2018-09-18T14:33:44.237Z,5.67
2018-09-18T14:36:14.616Z,6.60
2018-09-18T14:38:45.547Z,6.70
2018-09-18T14:41:26.811Z,6.47
2018-09-18T14:43:57.303Z,6.93
2018-09-18T14:46:32.818Z,6.23
2018-09-18T14:49:01.880Z,6.17
2018-09-18T14:51:31.854Z,6.80
2018-09-18T14:54:06.988Z,6.57
2018-09-18T14:56:35.907Z,7.30
2018-09-18T14:59:09.855Z,6.30
2018-09-18T15:01:40.420Z,7.70
2018-09-18T15:04:11.596Z,6.50
2018-09-18T15:06:44.115Z,6.60
2018-09-18T15:09:21.654Z,6.30
2018-09-18T15:12:02.449Z,6.63
2018-09-18T15:14:31.955Z,6.57
2018-09-18T15:17:05.468Z,6.90
2018-09-18T15:19:37.701Z,6.40
2018-09-18T15:22:19.694Z,5.60
2018-09-18T15:24:53.056Z,7.27
2018-09-18T15:27:33.958Z,6.50
2018-09-18T15:30:04.790Z,6.90
2018-09-18T15:32:42.809Z,7.73
2018-09-18T15:38:04.404Z,6.97
2018-09-18T15:40:45.223Z,5.97
2018-09-18T15:43:16.603Z,7.43
2018-09-18T15:45:55.776Z,6.03
2018-09-18T15:48:26.340Z,6.40
2018-09-18T15:50:56.969Z,6.20
2018-09-18T15:53:41.178Z,6.57
2018-09-18T15:56:13.454Z,6.00
2018-09-18T15:58:43.090Z,6.50
2018-09-18T16:01:15.449Z,7.10
2018-09-18T16:03:44.653Z,6.80
2018-09-18T16:06:13.907Z,6.20
2018-09-18T16:08:43.223Z,6.30
2018-09-18T16:11:25.751Z,7.47
2018-09-18T16:13:56.468Z,8.10
2018-09-18T16:16:31.056Z,7.20
2018-09-18T16:19:01.284Z,6.73
2018-09-18T16:21:31.444Z,6.50
2018-09-18T16:24:00.619Z,6.83
2018-09-18T16:26:30.517Z,7.83
2018-09-18T16:29:08.117Z,7.27
2018-09-18T16:31:37.002Z,7.93
2018-09-18T16:34:06.543Z,6.40
2018-09-18T16:36:38.675Z,6.50
2018-09-18T16:39:07.658Z,6.67
2018-09-18T16:41:37.660Z,7.07
2018-09-18T16:44:07.777Z,6.20
2018-09-18T16:46:36.827Z,6.97
2018-09-18T16:49:30.612Z,7.07
2018-09-18T16:51:59.447Z,7.43
2018-09-18T16:54:29.468Z,7.00
2018-09-18T16:57:05.090Z,6.33
2018-09-18T16:59:45.411Z,8.47
2018-09-18T17:02:18.818Z,7.17
2018-09-18T17:04:50.727Z,7.83
2018-09-18T17:07:20.257Z,6.07
2018-09-18T17:09:49.887Z,7.30
2018-09-18T17:12:18.871Z,6.63
2018-09-18T17:14:57.338Z,8.70
2018-09-18T17:17:28.140Z,8.97
2018-09-18T17:19:57.826Z,8.37
2018-09-18T17:22:38.558Z,11.93
2018-09-18T17:28:23.611Z,8.63
2018-09-18T17:30:53.385Z,8.43
2018-09-18T17:33:22.323Z,9.07
2018-09-18T17:35:51.223Z,9.50
2018-09-18T17:38:20.166Z,8.10
2018-09-18T17:40:49.107Z,7.07
2018-09-18T17:43:20.489Z,6.93
2018-09-18T17:45:49.450Z,6.73
2018-09-18T17:48:18.496Z,7.53
2018-09-18T17:50:47.597Z,6.60
2018-09-18T17:53:17.611Z,6.47
2018-09-18T17:55:46.891Z,8.17
2018-09-18T17:58:16.861Z,7.20
2018-09-18T18:00:45.628Z,6.87
2018-09-18T18:03:16.145Z,7.17
2018-09-18T18:05:45.725Z,6.70
2018-09-18T18:08:14.742Z,6.90
2018-09-18T18:10:44.462Z,7.00
2018-09-18T18:13:15.153Z,6.60
2018-09-18T18:15:45.996Z,6.93
2018-09-18T18:18:16.359Z,6.90
2018-09-18T18:20:57.879Z,7.73
2018-09-18T18:23:31.688Z,6.97
2018-09-18T18:26:11.526Z,8.83
2018-09-18T18:28:42.520Z,10.57
2018-09-18T18:31:21.065Z,8.90
2018-09-18T18:33:54.926Z,12.73
2018-09-18T18:36:26.532Z,12.17
2018-09-18T18:38:56.434Z,8.47
2018-09-18T18:41:26.156Z,6.33
2018-09-18T18:44:07.250Z,8.40
2018-09-18T18:47:02.693Z,6.87
2018-09-18T18:49:37.884Z,6.30
2018-09-18T18:52:12.368Z,7.60
2018-09-18T18:54:45.701Z,7.20
2018-09-18T18:57:19.407Z,6.10
2018-09-18T18:59:50.358Z,7.23
2018-09-18T19:02:22.115Z,7.60
2018-09-18T19:04:55.169Z,9.10
2018-09-18T19:07:26.534Z,7.30
2018-09-18T19:09:59.460Z,8.00
2018-09-18T19:12:39.037Z,7.30
2018-09-18T19:15:14.795Z,7.20
2018-09-18T19:17:44.240Z,7.73
2018-09-18T19:20:18.340Z,7.63
2018-09-18T19:22:50.243Z,7.37
2018-09-18T19:25:20.356Z,7.30
2018-09-18T19:27:52.423Z,8.23
2018-09-18T19:30:23.073Z,8.77
2018-09-18T19:32:57.401Z,7.73
2018-09-18T19:35:30.121Z,8.07
2018-09-18T19:38:00.841Z,7.50
2018-09-18T19:40:39.551Z,7.17
2018-09-18T19:43:10.135Z,7.23
2018-09-18T19:45:41.679Z,8.10
2018-09-18T19:48:13.766Z,8.17
2018-09-18T19:50:48.807Z,8.03
2018-09-18T19:53:29.475Z,6.97
2018-09-18T19:56:02.404Z,8.70
2018-09-18T19:58:44.159Z,7.57
2018-09-18T20:01:21.329Z,7.37
2018-09-18T20:03:53.285Z,8.00
2018-09-18T20:06:27.443Z,8.80
2018-09-18T20:09:03.746Z,8.03
2018-09-18T20:11:36.461Z,8.57
2018-09-18T20:14:08.454Z,8.30
2018-09-18T20:16:45.020Z,8.43
2018-09-18T20:19:15.929Z,8.13
2018-09-18T20:21:51.154Z,8.47
2018-09-18T20:24:28.819Z,7.30
2018-09-18T20:27:06.360Z,7.23
2018-09-18T20:29:40.785Z,7.67
2018-09-18T20:32:14.674Z,6.67
2018-09-18T20:35:25.795Z,5.70
2018-09-18T20:38:35.643Z,6.40
2018-09-18T20:46:46.241Z,6.60
2018-09-18T20:49:20.088Z,6.30
2018-09-18T20:52:03.848Z,6.50
2018-09-18T20:54:51.734Z,6.50
2018-09-18T20:57:23.772Z,6.53
2018-09-18T20:59:59.869Z,6.23
2018-09-18T21:02:36.937Z,6.47
2018-09-18T21:05:14.205Z,6.03
2018-09-18T21:07:52.206Z,6.83
2018-09-18T21:10:24.471Z,5.73
2018-09-18T21:12:58.773Z,6.60
2018-09-18T21:15:31.515Z,6.10
2018-09-18T21:18:19.007Z,6.20
2018-09-18T21:20:51.998Z,5.77
2018-09-18T21:23:24.724Z,7.27
2018-09-18T21:26:10.280Z,6.93
2018-09-18T21:28:42.983Z,5.80
2018-09-18T21:31:13.703Z,6.63
2018-09-18T21:33:44.210Z,5.67
2018-09-18T21:36:13.258Z,6.30
2018-09-18T21:38:45.588Z,6.83
2018-09-18T21:41:17.807Z,6.47
2018-09-18T21:43:48.160Z,6.67
2018-09-18T21:46:18.610Z,6.10
2018-09-18T21:48:54.479Z,5.67
2018-09-18T21:51:25.848Z,5.83
2018-09-18T21:53:55.126Z,5.60
2018-09-18T21:56:27.303Z,6.43
2018-09-18T21:59:01.294Z,5.63
2018-09-18T22:01:35.419Z,6.50
2018-09-18T22:04:05.342Z,6.03
2018-09-18T22:06:34.746Z,6.30
2018-09-18T22:09:09.621Z,6.17
2018-09-18T22:11:49.066Z,5.67
2018-09-18T22:14:23.960Z,5.53
2018-09-18T22:16:55.253Z,5.77
2018-09-18T22:19:28.743Z,6.17
2018-09-18T22:22:00.526Z,5.43
2018-09-18T22:24:39.059Z,5.60
2018-09-18T22:27:09.430Z,5.17
2018-09-18T22:29:40.801Z,5.93
2018-09-18T22:32:13.016Z,5.20
2018-09-18T22:34:44.638Z,5.43
2018-09-18T22:37:17.381Z,4.70
2018-09-18T22:39:48.119Z,5.43
2018-09-18T22:42:19.250Z,5.37
2018-09-18T22:44:53.097Z,5.27
2018-09-18T22:47:23.096Z,5.03
2018-09-18T22:49:57.532Z,5.40
2018-09-18T22:52:34.235Z,5.77
2018-09-18T22:55:06.451Z,5.00
2018-09-18T22:57:41.173Z,4.80
2018-09-18T23:00:14.255Z,5.07
2018-09-18T23:02:43.726Z,4.67
2018-09-18T23:05:16.890Z,4.50
2018-09-18T23:07:48.621Z,4.80
2018-09-18T23:10:26.229Z,4.07
2018-09-18T23:12:58.229Z,4.93
2018-09-18T23:15:35.855Z,4.30
2018-09-18T23:20:45.829Z,3.83
2018-09-18T23:23:19.833Z,3.50
2018-09-18T23:25:54.764Z,3.67
2018-09-18T23:28:25.545Z,4.10
2018-09-18T23:30:59.133Z,3.50
2018-09-18T23:33:29.485Z,3.80
2018-09-18T23:35:58.930Z,4.37
2018-09-18T23:38:29.621Z,3.80
2018-09-18T23:41:00.883Z,3.93
2018-09-18T23:43:31.062Z,4.10
2018-09-18T23:46:01.287Z,3.80
2018-09-18T23:48:31.560Z,3.47
2018-09-18T23:51:02.515Z,3.57
2018-09-18T23:53:35.549Z,3.77
2018-09-18T23:56:07.620Z,3.70
2018-09-18T23:58:37.223Z,4.23
